createdAt,value
2024-03-18T00:00:49.981Z,867.00
2024-03-18T00:01:50.091Z,876.00
2024-03-18T00:02:50.119Z,867.00
2024-03-18T00:03:50.180Z,865.00
2024-03-18T00:04:50.299Z,863.00
2024-03-18T00:05:50.308Z,860.00
2024-03-18T00:06:50.383Z,868.00
2024-03-18T00:07:50.456Z,865.00
2024-03-18T00:08:50.513Z,864.00
2024-03-18T00:09:50.578Z,864.00
2024-03-18T00:10:50.712Z,863.00
2024-03-18T00:11:50.733Z,858.00
2024-03-18T00:12:50.798Z,857.00
2024-03-18T00:13:50.878Z,860.00
2024-03-18T00:14:50.943Z,858.00
2024-03-18T00:15:51.008Z,862.00
2024-03-18T00:16:51.077Z,859.00
2024-03-18T00:17:51.166Z,856.00
2024-03-18T00:18:51.219Z,849.00
2024-03-18T00:19:51.286Z,854.00
2024-03-18T00:20:51.351Z,846.00
2024-03-18T00:21:51.427Z,854.00
2024-03-18T00:22:51.487Z,844.00
2024-03-18T00:23:51.554Z,852.00
2024-03-18T00:24:51.629Z,839.00
2024-03-18T00:25:51.697Z,844.00
2024-03-18T00:26:51.746Z,842.00
2024-03-18T00:27:51.822Z,840.00
2024-03-18T00:28:51.896Z,834.00
2024-03-18T00:29:51.993Z,831.00
2024-03-18T00:30:52.026Z,840.00
2024-03-18T00:31:52.085Z,834.00
2024-03-18T00:32:52.160Z,835.00
2024-03-18T00:33:52.210Z,833.00
2024-03-18T00:34:52.313Z,831.00
2024-03-18T00:35:52.351Z,832.00
2024-03-18T00:36:52.429Z,832.00
2024-03-18T00:37:52.498Z,828.00
2024-03-18T00:38:52.563Z,826.00
2024-03-18T00:39:52.654Z,823.00
2024-03-18T00:40:52.701Z,827.00
2024-03-18T00:41:52.785Z,832.00
2024-03-18T00:42:52.853Z,820.00
2024-03-18T00:43:52.912Z,823.00
2024-03-18T00:44:53.002Z,815.00
2024-03-18T00:45:53.046Z,823.00
2024-03-18T00:46:53.143Z,817.00
2024-03-18T00:47:53.189Z,820.00
2024-03-18T00:48:53.271Z,806.00
2024-03-18T00:49:53.357Z,816.00
2024-03-18T00:50:53.396Z,813.00
2024-03-18T00:51:53.458Z,816.00
2024-03-18T00:52:53.553Z,812.00
2024-03-18T00:53:53.596Z,814.00
2024-03-18T00:54:53.690Z,814.00
2024-03-18T00:55:53.733Z,816.00
2024-03-18T00:56:53.808Z,813.00
2024-03-18T00:57:53.879Z,814.00
2024-03-18T00:58:53.948Z,807.00
2024-03-18T00:59:54.029Z,809.00
2024-03-18T01:00:54.102Z,808.00
2024-03-18T01:01:54.145Z,807.00
2024-03-18T01:02:54.193Z,801.00
2024-03-18T01:03:54.283Z,804.00
2024-03-18T01:04:54.357Z,803.00
2024-03-18T01:05:54.417Z,806.00
2024-03-18T01:06:54.491Z,810.00
2024-03-18T01:07:54.553Z,812.00
2024-03-18T01:08:54.607Z,809.00
2024-03-18T01:09:54.711Z,811.00
2024-03-18T01:10:54.757Z,804.00
2024-03-18T01:11:54.808Z,802.00
2024-03-18T01:12:54.879Z,800.00
2024-03-18T01:13:54.940Z,799.00
2024-03-18T01:14:55.041Z,799.00
2024-03-18T01:15:55.078Z,795.00
2024-03-18T01:16:55.144Z,801.00
2024-03-18T01:17:55.208Z,802.00
2024-03-18T01:18:55.284Z,800.00
2024-03-18T01:19:55.363Z,801.00
2024-03-18T01:20:55.415Z,804.00
2024-03-18T01:21:55.477Z,803.00
2024-03-18T01:22:55.554Z,803.00
2024-03-18T01:23:55.625Z,802.00
2024-03-18T01:24:55.732Z,797.00
2024-03-18T01:25:55.773Z,799.00
2024-03-18T01:26:55.844Z,797.00
2024-03-18T01:27:55.903Z,800.00
2024-03-18T01:28:55.954Z,801.00
2024-03-18T01:29:56.019Z,802.00
2024-03-18T01:30:56.092Z,801.00
2024-03-18T01:31:56.167Z,799.00
2024-03-18T01:32:56.239Z,801.00
2024-03-18T01:33:56.292Z,795.00
2024-03-18T01:34:56.395Z,794.00
2024-03-18T01:35:56.416Z,796.00
2024-03-18T01:36:56.489Z,785.00
2024-03-18T01:37:56.575Z,785.00
2024-03-18T01:38:56.621Z,794.00
2024-03-18T01:39:56.724Z,793.00
2024-03-18T01:40:56.754Z,795.00
2024-03-18T01:41:56.818Z,798.00
2024-03-18T01:42:56.920Z,795.00
2024-03-18T01:43:56.959Z,795.00
2024-03-18T01:44:57.055Z,798.00
2024-03-18T01:45:57.097Z,800.00
2024-03-18T01:46:57.148Z,797.00
2024-03-18T01:47:57.195Z,794.00
2024-03-18T01:48:57.266Z,789.00
2024-03-18T01:49:57.328Z,794.00
2024-03-18T01:50:57.397Z,791.00
2024-03-18T01:51:57.454Z,787.00
2024-03-18T01:52:57.520Z,789.00
2024-03-18T01:53:57.583Z,794.00
2024-03-18T01:54:57.674Z,788.00
2024-03-18T01:55:57.724Z,792.00
2024-03-18T01:56:57.778Z,794.00
2024-03-18T01:57:57.837Z,797.00
2024-03-18T01:58:57.906Z,794.00
2024-03-18T01:59:57.990Z,799.00
2024-03-18T02:00:58.027Z,797.00
2024-03-18T02:01:58.093Z,796.00
2024-03-18T02:02:58.168Z,790.00
2024-03-18T02:03:58.810Z,792.00
2024-03-18T02:04:58.280Z,797.00
2024-03-18T02:05:58.358Z,795.00
2024-03-18T02:06:58.417Z,791.00
2024-03-18T02:07:58.485Z,792.00
2024-03-18T02:08:58.547Z,790.00
2024-03-18T02:09:58.633Z,794.00
2024-03-18T02:10:58.679Z,790.00
2024-03-18T02:11:58.736Z,789.00
2024-03-18T02:12:58.785Z,789.00
2024-03-18T02:13:58.842Z,796.00
2024-03-18T02:14:58.928Z,792.00
2024-03-18T02:15:58.980Z,793.00
2024-03-18T02:16:59.062Z,790.00
2024-03-18T02:17:59.116Z,790.00
2024-03-18T02:18:59.188Z,793.00
2024-03-18T02:19:59.243Z,792.00
2024-03-18T02:20:59.322Z,798.00
2024-03-18T02:21:59.391Z,789.00
2024-03-18T02:22:59.461Z,791.00
2024-03-18T02:23:59.524Z,792.00
2024-03-18T02:24:59.585Z,787.00
2024-03-18T02:25:59.648Z,791.00
2024-03-18T02:26:59.692Z,796.00
2024-03-18T02:27:59.779Z,794.00
2024-03-18T02:28:59.826Z,788.00
2024-03-18T02:29:59.889Z,789.00
2024-03-18T02:30:59.954Z,789.00
2024-03-18T02:32:00.011Z,791.00
2024-03-18T02:33:00.100Z,789.00
2024-03-18T02:34:00.213Z,789.00
2024-03-18T02:35:00.280Z,787.00
2024-03-18T02:36:00.305Z,786.00
2024-03-18T02:37:00.366Z,786.00
2024-03-18T02:38:00.408Z,783.00
2024-03-18T02:39:00.467Z,789.00
2024-03-18T02:40:00.546Z,788.00
2024-03-18T02:41:00.600Z,786.00
2024-03-18T02:42:00.644Z,786.00
2024-03-18T02:43:00.706Z,795.00
2024-03-18T02:44:00.795Z,786.00
2024-03-18T02:45:00.848Z,773.00
2024-03-18T02:46:00.891Z,772.00
2024-03-18T02:47:00.976Z,778.00
2024-03-18T02:48:01.020Z,774.00
2024-03-18T02:49:01.103Z,781.00
2024-03-18T02:50:01.145Z,779.00
2024-03-18T02:51:01.218Z,785.00
2024-03-18T02:52:01.288Z,781.00
2024-03-18T02:53:01.326Z,778.00
2024-03-18T02:54:01.405Z,774.00
2024-03-18T02:55:01.493Z,772.00
2024-03-18T02:56:01.509Z,779.00
2024-03-18T02:57:01.584Z,779.00
2024-03-18T02:58:01.635Z,778.00
2024-03-18T02:59:01.688Z,779.00
2024-03-18T03:00:01.756Z,782.00
2024-03-18T03:01:01.821Z,779.00
2024-03-18T03:02:01.877Z,787.00
2024-03-18T03:03:01.940Z,792.00
2024-03-18T03:04:02.112Z,788.00
2024-03-18T03:05:02.151Z,786.00
2024-03-18T03:06:02.132Z,784.00
2024-03-18T03:07:02.166Z,785.00
2024-03-18T03:08:02.232Z,787.00
2024-03-18T03:09:02.274Z,787.00
2024-03-18T03:10:02.416Z,785.00
2024-03-18T03:11:02.404Z,795.00
2024-03-18T03:12:02.463Z,788.00
2024-03-18T03:13:02.545Z,790.00
2024-03-18T03:14:02.595Z,787.00
2024-03-18T03:15:02.700Z,789.00
2024-03-18T03:16:02.712Z,791.00
2024-03-18T03:17:02.779Z,792.00
2024-03-18T03:18:02.830Z,798.00
2024-03-18T03:19:02.894Z,796.00
2024-03-18T03:20:02.995Z,800.00
2024-03-18T03:21:03.003Z,797.00
2024-03-18T03:22:03.062Z,796.00
2024-03-18T03:23:03.140Z,797.00
2024-03-18T03:24:03.163Z,798.00
2024-03-18T03:25:03.244Z,794.00
2024-03-18T03:26:03.256Z,791.00
2024-03-18T03:27:03.332Z,802.00
2024-03-18T03:28:03.418Z,800.00
2024-03-18T03:29:03.474Z,802.00
2024-03-18T03:30:03.557Z,794.00
2024-03-18T03:31:03.589Z,801.00
2024-03-18T03:32:03.694Z,801.00
2024-03-18T03:33:03.711Z,799.00
2024-03-18T03:34:03.760Z,795.00
2024-03-18T03:35:03.845Z,797.00
2024-03-18T03:36:03.899Z,795.00
2024-03-18T03:37:03.941Z,801.00
2024-03-18T03:38:03.976Z,790.00
2024-03-18T03:39:04.077Z,789.00
2024-03-18T03:40:04.146Z,795.00
2024-03-18T03:41:04.173Z,794.00
2024-03-18T03:42:04.247Z,788.00
2024-03-18T03:43:04.284Z,793.00
2024-03-18T03:44:04.337Z,790.00
2024-03-18T03:45:04.429Z,784.00
2024-03-18T03:46:04.432Z,785.00
2024-03-18T03:47:06.478Z,784.00
2024-03-18T03:48:04.497Z,780.00
2024-03-18T03:49:04.516Z,778.00
2024-03-18T03:50:04.530Z,780.00
2024-03-18T03:51:04.512Z,789.00
2024-03-18T03:52:04.511Z,792.00
2024-03-18T03:53:04.509Z,781.00
2024-03-18T03:54:04.511Z,779.00
2024-03-18T03:55:04.509Z,782.00
2024-03-18T03:56:04.524Z,776.00
2024-03-18T03:57:04.514Z,774.00
2024-03-18T03:58:05.400Z,775.00
2024-03-18T03:59:04.512Z,775.00
2024-03-18T04:00:04.565Z,771.00
2024-03-18T04:01:04.560Z,772.00
2024-03-18T04:02:04.527Z,778.00
2024-03-18T04:03:04.536Z,774.00
2024-03-18T04:04:04.540Z,773.00
2024-03-18T04:05:04.522Z,771.00
2024-03-18T04:06:04.534Z,771.00
2024-03-18T04:07:04.526Z,772.00
2024-03-18T04:08:04.537Z,772.00
2024-03-18T04:09:04.540Z,775.00
2024-03-18T04:10:04.575Z,772.00
2024-03-18T04:11:04.532Z,766.00
2024-03-18T04:12:04.532Z,772.00
2024-03-18T04:13:04.538Z,769.00
2024-03-18T04:14:04.548Z,770.00
2024-03-18T04:15:04.575Z,765.00
2024-03-18T04:16:04.560Z,765.00
2024-03-18T04:17:04.544Z,765.00
2024-03-18T04:18:04.547Z,764.00
2024-03-18T04:19:04.548Z,764.00
2024-03-18T04:20:04.567Z,763.00
2024-03-18T04:21:04.549Z,760.00
2024-03-18T04:22:04.558Z,754.00
2024-03-18T04:23:04.563Z,760.00
2024-03-18T04:24:04.572Z,755.00
2024-03-18T04:25:04.558Z,761.00
2024-03-18T04:26:11.788Z,600.00
2024-03-18T04:27:11.779Z,600.00
2024-03-18T04:28:11.776Z,600.00
2024-03-18T04:29:11.796Z,600.00
2024-03-18T04:30:11.856Z,600.00
2024-03-18T04:31:19.019Z,600.00
2024-03-18T04:32:19.029Z,600.00
2024-03-18T04:33:19.028Z,600.00
2024-03-18T04:34:19.028Z,600.00
2024-03-18T04:35:19.032Z,600.00
2024-03-18T04:36:19.036Z,601.00
2024-03-18T04:37:19.029Z,602.00
2024-03-18T04:38:19.033Z,601.00
2024-03-18T04:39:19.038Z,601.00
2024-03-18T04:40:19.035Z,601.00
2024-03-18T04:41:19.043Z,602.00
2024-03-18T04:42:19.042Z,602.00
2024-03-18T04:43:19.033Z,601.00
2024-03-18T04:44:19.045Z,601.00
2024-03-18T04:45:19.035Z,605.00
2024-03-18T04:46:19.043Z,602.00
2024-03-18T04:47:19.063Z,602.00
2024-03-18T04:48:19.061Z,603.00
2024-03-18T04:49:19.073Z,601.00
2024-03-18T04:50:19.070Z,600.00
2024-03-18T04:51:19.068Z,602.00
2024-03-18T04:52:19.054Z,603.00
2024-03-18T04:53:19.059Z,601.00
2024-03-18T04:54:19.074Z,600.00
2024-03-18T04:55:19.063Z,600.00
2024-03-18T04:56:19.077Z,603.00
2024-03-18T04:57:19.074Z,603.00
2024-03-18T04:58:19.076Z,601.00
2024-03-18T04:59:19.079Z,600.00
2024-03-18T05:00:19.144Z,603.00
2024-03-18T05:01:19.160Z,602.00
2024-03-18T05:02:19.166Z,604.00
2024-03-18T05:03:19.217Z,604.00
2024-03-18T05:04:19.261Z,602.00
2024-03-18T05:05:19.299Z,602.00
2024-03-18T05:06:19.333Z,601.00
2024-03-18T05:07:19.343Z,602.00
2024-03-18T05:08:19.377Z,602.00
2024-03-18T05:09:21.972Z,603.00
2024-03-18T05:10:19.440Z,603.00
2024-03-18T05:11:19.470Z,604.00
2024-03-18T05:12:19.425Z,604.00
2024-03-18T05:13:19.423Z,603.00
2024-03-18T05:14:19.427Z,603.00
2024-03-18T05:15:19.430Z,607.00
2024-03-18T05:16:22.034Z,607.00
2024-03-18T05:17:19.453Z,607.00
2024-03-18T05:18:19.434Z,608.00
2024-03-18T05:19:19.450Z,607.00
2024-03-18T05:20:19.442Z,607.00
2024-03-18T05:21:19.460Z,608.00
2024-03-18T05:22:19.440Z,610.00
2024-03-18T05:23:19.470Z,607.00
2024-03-18T05:24:19.460Z,608.00
2024-03-18T05:25:19.462Z,605.00
2024-03-18T05:26:19.459Z,608.00
2024-03-18T05:27:19.450Z,610.00
2024-03-18T05:28:19.462Z,606.00
2024-03-18T05:29:19.465Z,605.00
2024-03-18T05:30:19.478Z,607.00
2024-03-18T05:31:19.472Z,608.00
2024-03-18T05:32:19.473Z,609.00
2024-03-18T05:33:19.463Z,608.00
2024-03-18T05:34:19.494Z,606.00
2024-03-18T05:35:19.487Z,605.00
2024-03-18T05:36:19.469Z,606.00
2024-03-18T05:37:19.480Z,606.00
2024-03-18T05:38:19.505Z,606.00
2024-03-18T05:39:19.478Z,610.00
2024-03-18T05:40:19.485Z,610.00
2024-03-18T05:41:19.567Z,610.00
2024-03-18T05:42:19.499Z,610.00
2024-03-18T05:43:19.494Z,612.00
2024-03-18T05:44:19.482Z,613.00
2024-03-18T05:45:19.492Z,613.00
2024-03-18T05:46:19.507Z,616.00
2024-03-18T05:47:19.500Z,615.00
2024-03-18T05:48:19.491Z,616.00
2024-03-18T05:49:19.499Z,614.00
2024-03-18T05:50:19.592Z,618.00
2024-03-18T05:51:19.511Z,616.00
2024-03-18T05:52:19.507Z,619.00
2024-03-18T05:53:19.504Z,618.00
2024-03-18T05:54:19.514Z,616.00
2024-03-18T05:55:19.521Z,618.00
2024-03-18T05:56:19.607Z,619.00
2024-03-18T05:57:19.497Z,620.00
2024-03-18T05:58:19.520Z,622.00
2024-03-18T05:59:19.500Z,621.00
2024-03-18T06:00:19.524Z,620.00
2024-03-18T06:01:19.677Z,621.00
2024-03-18T06:02:19.511Z,624.00
2024-03-18T06:03:19.517Z,625.00
2024-03-18T06:04:19.529Z,623.00
2024-03-18T06:05:19.518Z,625.00
2024-03-18T06:06:19.518Z,628.00
2024-03-18T06:07:19.526Z,627.00
2024-03-18T06:08:19.527Z,626.00
2024-03-18T06:09:19.550Z,627.00
2024-03-18T06:10:19.553Z,626.00
2024-03-18T06:11:19.535Z,629.00
2024-03-18T06:12:19.531Z,630.00
2024-03-18T06:13:19.519Z,632.00
2024-03-18T06:14:19.527Z,635.00
2024-03-18T06:15:19.555Z,636.00
2024-03-18T06:16:19.540Z,638.00
2024-03-18T06:17:19.534Z,636.00
2024-03-18T06:18:19.523Z,639.00
2024-03-18T06:19:19.527Z,641.00
2024-03-18T06:20:19.534Z,641.00
2024-03-18T06:21:19.542Z,641.00
2024-03-18T06:22:19.535Z,643.00
2024-03-18T06:23:19.546Z,644.00
2024-03-18T06:24:19.529Z,646.00
2024-03-18T06:25:19.538Z,645.00
2024-03-18T06:26:19.717Z,645.00
2024-03-18T06:27:20.598Z,637.00
2024-03-18T06:28:19.586Z,640.00
2024-03-18T06:29:22.221Z,644.00
2024-03-18T06:30:19.602Z,647.00
2024-03-18T06:31:19.688Z,648.00
2024-03-18T06:32:19.687Z,648.00
2024-03-18T06:33:19.557Z,650.00
2024-03-18T06:34:19.557Z,654.00
2024-03-18T06:35:19.722Z,651.00
2024-03-18T06:36:19.552Z,659.00
2024-03-18T06:37:19.705Z,662.00
2024-03-18T06:38:19.560Z,662.00
2024-03-18T06:39:19.556Z,664.00
2024-03-18T06:40:20.307Z,668.00
2024-03-18T06:41:19.571Z,678.00
2024-03-18T06:42:19.782Z,704.00
2024-03-18T06:43:19.619Z,724.00
2024-03-18T06:44:19.628Z,746.00
2024-03-18T06:45:19.728Z,760.00
2024-03-18T06:46:19.689Z,787.00
2024-03-18T06:47:20.252Z,817.00
2024-03-18T06:48:19.751Z,818.00
2024-03-18T06:49:19.808Z,824.00
2024-03-18T06:50:19.854Z,839.00
2024-03-18T06:51:19.859Z,866.00
2024-03-18T06:52:19.918Z,908.00
2024-03-18T06:53:20.707Z,935.00
2024-03-18T06:54:19.962Z,930.00
2024-03-18T06:55:20.233Z,952.00
2024-03-18T06:56:19.982Z,953.00
2024-03-18T06:57:20.013Z,951.00
2024-03-18T06:58:20.029Z,979.00
2024-03-18T06:59:20.060Z,1000.00
2024-03-18T07:00:20.083Z,994.00
2024-03-18T07:01:20.077Z,1010.00
2024-03-18T07:02:20.097Z,1014.00
2024-03-18T07:03:20.122Z,1028.00
2024-03-18T07:04:20.212Z,1026.00
2024-03-18T07:05:20.121Z,1053.00
2024-03-18T07:06:20.145Z,1058.00
2024-03-18T07:07:20.157Z,1067.00
2024-03-18T07:08:20.152Z,1065.00
2024-03-18T07:09:20.718Z,1060.00
2024-03-18T07:10:20.682Z,1076.00
2024-03-18T07:11:20.193Z,1089.00
2024-03-18T07:12:20.202Z,1083.00
2024-03-18T07:13:20.232Z,1076.00
2024-03-18T07:14:20.254Z,1079.00
2024-03-18T07:15:20.280Z,1089.00
2024-03-18T07:16:20.304Z,1095.00
2024-03-18T07:17:20.352Z,1086.00
2024-03-18T07:18:20.378Z,1077.00
2024-03-18T07:19:20.443Z,1127.00
2024-03-18T07:20:26.200Z,1136.00
2024-03-18T07:21:21.499Z,1137.00
2024-03-18T07:22:20.493Z,1144.00
2024-03-18T07:23:20.478Z,1154.00
2024-03-18T07:24:20.719Z,1167.00
2024-03-18T07:25:20.524Z,1178.00
2024-03-18T07:26:20.498Z,1190.00
2024-03-18T07:27:20.548Z,1181.00
2024-03-18T07:28:20.528Z,1204.00
2024-03-18T07:29:20.713Z,1184.00
2024-03-18T07:30:20.717Z,1187.00
2024-03-18T07:31:20.734Z,1176.00
2024-03-18T07:32:20.568Z,1163.00
2024-03-18T07:33:20.640Z,1153.00
2024-03-18T07:34:20.724Z,1143.00
2024-03-18T07:35:20.797Z,1124.00
2024-03-18T07:36:20.693Z,1124.00
2024-03-18T07:37:20.710Z,1091.00
2024-03-18T07:38:25.940Z,1046.00
2024-03-18T07:39:21.710Z,1037.00
2024-03-18T07:40:20.694Z,1015.00
2024-03-18T07:41:20.733Z,1004.00
2024-03-18T07:42:20.741Z,1000.00
2024-03-18T07:43:20.704Z,972.00
2024-03-18T07:44:20.709Z,963.00
2024-03-18T07:45:20.756Z,965.00
2024-03-18T07:46:20.696Z,968.00
2024-03-18T07:47:20.706Z,940.00
2024-03-18T07:48:20.700Z,942.00
2024-03-18T07:49:20.712Z,956.00
2024-03-18T07:50:20.726Z,951.00
2024-03-18T07:51:20.729Z,941.00
2024-03-18T07:52:20.713Z,965.00
2024-03-18T07:53:20.720Z,1023.00
2024-03-18T07:54:20.792Z,1023.00
2024-03-18T07:55:20.709Z,998.00
2024-03-18T07:56:20.729Z,982.00
2024-03-18T07:57:20.714Z,981.00
2024-03-18T07:58:20.730Z,970.00
2024-03-18T07:59:20.716Z,972.00
2024-03-18T08:00:20.767Z,957.00
2024-03-18T08:01:20.720Z,957.00
2024-03-18T08:02:20.717Z,943.00
2024-03-18T08:03:20.719Z,948.00
2024-03-18T08:04:20.823Z,955.00
2024-03-18T08:05:20.737Z,946.00
2024-03-18T08:06:20.734Z,919.00
2024-03-18T08:07:20.724Z,909.00
2024-03-18T08:08:20.737Z,915.00
2024-03-18T08:09:20.717Z,888.00
2024-03-18T08:10:20.794Z,896.00
2024-03-18T08:11:20.732Z,897.00
2024-03-18T08:12:20.753Z,909.00
2024-03-18T08:13:20.776Z,896.00
2024-03-18T08:14:20.787Z,902.00
2024-03-18T08:15:20.799Z,894.00
2024-03-18T08:16:20.812Z,886.00
2024-03-18T08:17:20.841Z,886.00
2024-03-18T08:18:20.842Z,886.00
2024-03-18T08:19:20.865Z,892.00
2024-03-18T08:20:21.245Z,887.00
2024-03-18T08:21:20.890Z,897.00
2024-03-18T08:22:21.366Z,877.00
2024-03-18T08:23:20.905Z,967.00
2024-03-18T08:24:20.933Z,1023.00
2024-03-18T08:25:21.266Z,1001.00
2024-03-18T08:26:21.235Z,972.00
2024-03-18T08:27:21.016Z,935.00
2024-03-18T08:28:21.005Z,937.00
2024-03-18T08:29:21.019Z,922.00
2024-03-18T08:30:21.086Z,926.00
2024-03-18T08:31:21.304Z,924.00
2024-03-18T08:32:21.099Z,929.00
2024-03-18T08:33:26.859Z,923.00
2024-03-18T08:34:22.101Z,924.00
2024-03-18T08:35:21.162Z,925.00
2024-03-18T08:36:21.238Z,933.00
2024-03-18T08:37:21.111Z,930.00
2024-03-18T08:38:21.092Z,925.00
2024-03-18T08:39:21.101Z,901.00
2024-03-18T08:40:21.115Z,893.00
2024-03-18T08:41:21.255Z,886.00
2024-03-18T08:42:21.114Z,882.00
2024-03-18T08:43:21.129Z,869.00
2024-03-18T08:44:21.121Z,861.00
2024-03-18T08:45:21.105Z,860.00
2024-03-18T08:46:21.268Z,868.00
2024-03-18T08:47:21.126Z,848.00
2024-03-18T08:48:21.124Z,833.00
2024-03-18T08:49:21.119Z,829.00
2024-03-18T08:50:21.117Z,817.00
2024-03-18T08:51:21.124Z,803.00
2024-03-18T08:52:21.124Z,793.00
2024-03-18T08:53:21.142Z,786.00
2024-03-18T08:54:21.117Z,779.00
2024-03-18T08:55:21.143Z,773.00
2024-03-18T08:56:21.138Z,759.00
2024-03-18T08:57:21.130Z,745.00
2024-03-18T08:58:21.187Z,744.00
2024-03-18T08:59:21.195Z,736.00
2024-03-18T09:00:21.150Z,731.00
2024-03-18T09:01:21.144Z,730.00
2024-03-18T09:02:21.200Z,714.00
2024-03-18T09:03:21.131Z,716.00
2024-03-18T09:04:21.153Z,712.00
2024-03-18T09:05:21.165Z,702.00
2024-03-18T09:06:21.195Z,688.00
2024-03-18T09:07:21.228Z,689.00
2024-03-18T09:08:21.214Z,705.00
2024-03-18T09:09:21.265Z,711.00
2024-03-18T09:10:21.253Z,721.00
2024-03-18T09:11:21.259Z,715.00
2024-03-18T09:12:21.354Z,713.00
2024-03-18T09:13:21.282Z,713.00
2024-03-18T09:14:21.298Z,697.00
2024-03-18T09:15:21.312Z,700.00
2024-03-18T09:16:21.337Z,707.00
2024-03-18T09:17:21.348Z,690.00
2024-03-18T09:18:21.376Z,710.00
2024-03-18T09:19:21.384Z,703.00
2024-03-18T09:20:21.418Z,699.00
2024-03-18T09:21:21.810Z,688.00
2024-03-18T09:22:21.442Z,645.00
2024-03-18T09:23:21.493Z,626.00
2024-03-18T09:24:21.550Z,605.00
2024-03-18T09:25:21.609Z,600.00
2024-03-18T09:26:21.762Z,601.00
2024-03-18T09:27:21.707Z,608.00
2024-03-18T09:28:21.758Z,607.00
2024-03-18T09:29:21.820Z,600.00
2024-03-18T09:30:21.881Z,601.00
2024-03-18T09:31:21.961Z,600.00
2024-03-18T09:32:21.991Z,610.00
2024-03-18T09:33:22.085Z,614.00
2024-03-18T09:34:22.076Z,629.00
2024-03-18T09:35:22.129Z,631.00
2024-03-18T09:36:22.281Z,627.00
2024-03-18T09:37:22.229Z,640.00
2024-03-18T09:38:22.220Z,645.00
2024-03-18T09:39:22.782Z,650.00
2024-03-18T09:40:23.790Z,658.00
2024-03-18T09:41:22.849Z,640.00
2024-03-18T09:42:22.325Z,614.00
2024-03-18T09:43:23.188Z,605.00
2024-03-18T09:44:22.423Z,601.00
2024-03-18T09:45:22.510Z,601.00
2024-03-18T09:46:22.553Z,600.00
2024-03-18T09:47:31.851Z,599.00
2024-03-18T09:48:23.600Z,594.00
2024-03-18T09:49:22.608Z,576.00
2024-03-18T09:50:22.613Z,558.00
2024-03-18T09:51:22.619Z,548.00
2024-03-18T09:52:22.685Z,542.00
2024-03-18T09:53:22.618Z,580.00
2024-03-18T09:54:22.619Z,601.00
2024-03-18T09:55:22.615Z,600.00
2024-03-18T09:56:22.606Z,600.00
2024-03-18T09:57:22.698Z,609.00
2024-03-18T09:58:22.603Z,610.00
2024-03-18T09:59:22.629Z,619.00
2024-03-18T10:00:22.670Z,620.00
2024-03-18T10:01:22.634Z,618.00
2024-03-18T10:02:22.630Z,632.00
2024-03-18T10:03:22.637Z,645.00
2024-03-18T10:04:22.663Z,664.00
2024-03-18T10:05:22.666Z,787.00
2024-03-18T10:06:22.722Z,836.00
2024-03-18T10:07:22.754Z,873.00
2024-03-18T10:08:22.785Z,891.00
2024-03-18T10:09:22.907Z,936.00
2024-03-18T10:10:23.698Z,940.00
2024-03-18T10:11:22.889Z,939.00
2024-03-18T10:12:22.931Z,959.00
2024-03-18T10:13:22.955Z,975.00
2024-03-18T10:14:22.966Z,980.00
2024-03-18T10:15:23.009Z,1063.00
2024-03-18T10:16:22.997Z,1022.00
2024-03-18T10:17:23.019Z,1016.00
2024-03-18T10:18:23.035Z,1001.00
2024-03-18T10:19:23.076Z,973.00
2024-03-18T10:20:24.275Z,950.00
2024-03-18T10:21:23.106Z,944.00
2024-03-18T10:22:23.168Z,1002.00
2024-03-18T10:23:23.158Z,980.00
2024-03-18T10:24:23.156Z,974.00
2024-03-18T10:25:23.182Z,965.00
2024-03-18T10:26:23.375Z,927.00
2024-03-18T10:27:23.303Z,956.00
2024-03-18T10:28:23.236Z,954.00
2024-03-18T10:29:23.247Z,979.00
2024-03-18T10:30:23.262Z,991.00
2024-03-18T10:31:23.308Z,976.00
2024-03-18T10:32:23.382Z,979.00
2024-03-18T10:33:23.322Z,985.00
2024-03-18T10:34:23.374Z,999.00
2024-03-18T10:35:23.381Z,979.00
2024-03-18T10:36:23.795Z,949.00
2024-03-18T10:37:23.426Z,939.00
2024-03-18T10:38:24.086Z,895.00
2024-03-18T10:39:23.504Z,874.00
2024-03-18T10:40:23.531Z,840.00
2024-03-18T10:41:23.624Z,810.00
2024-03-18T10:42:23.750Z,784.00
2024-03-18T10:43:23.684Z,760.00
2024-03-18T10:44:23.727Z,732.00
2024-03-18T10:45:23.882Z,720.00
2024-03-18T10:46:23.847Z,697.00
2024-03-18T10:47:23.885Z,666.00
2024-03-18T10:48:23.934Z,653.00
2024-03-18T10:49:23.988Z,646.00
2024-03-18T10:50:24.037Z,642.00
2024-03-18T10:51:24.299Z,631.00
2024-03-18T10:52:24.144Z,617.00
2024-03-18T10:53:24.202Z,610.00
2024-03-18T10:54:24.324Z,606.00
2024-03-18T10:55:25.185Z,604.00
2024-03-18T10:56:24.411Z,602.00
2024-03-18T10:57:24.432Z,601.00
2024-03-18T10:58:24.501Z,601.00
2024-03-18T10:59:24.555Z,603.00
2024-03-18T11:00:24.606Z,601.00
2024-03-18T11:01:24.672Z,601.00
2024-03-18T11:02:24.755Z,601.00
2024-03-18T11:03:24.785Z,602.00
2024-03-18T11:04:24.859Z,607.00
2024-03-18T11:05:24.907Z,605.00
2024-03-18T11:06:24.982Z,607.00
2024-03-18T11:07:25.027Z,601.00
2024-03-18T11:08:25.112Z,602.00
2024-03-18T11:09:25.175Z,600.00
2024-03-18T11:10:25.223Z,604.00
2024-03-18T11:11:25.304Z,604.00
2024-03-18T11:12:25.353Z,601.00
2024-03-18T11:13:25.410Z,606.00
2024-03-18T11:14:25.496Z,606.00
2024-03-18T11:15:25.591Z,602.00
2024-03-18T11:16:25.650Z,601.00
2024-03-18T11:17:25.669Z,603.00
2024-03-18T11:18:25.727Z,607.00
2024-03-18T11:19:25.803Z,614.00
2024-03-18T11:20:25.884Z,613.00
2024-03-18T11:21:26.329Z,626.00
2024-03-18T11:22:26.013Z,641.00
2024-03-18T11:23:26.038Z,657.00
2024-03-18T11:24:26.086Z,679.00
2024-03-18T11:25:26.145Z,705.00
2024-03-18T11:26:26.336Z,730.00
2024-03-18T11:27:26.256Z,737.00
2024-03-18T11:28:26.290Z,732.00
2024-03-18T11:29:26.348Z,732.00
2024-03-18T11:30:26.439Z,729.00
2024-03-18T11:31:26.485Z,725.00
2024-03-18T11:32:26.535Z,734.00
2024-03-18T11:33:26.585Z,754.00
2024-03-18T11:34:26.659Z,781.00
2024-03-18T11:35:26.727Z,801.00
2024-03-18T11:36:26.832Z,807.00
2024-03-18T11:37:26.813Z,826.00
2024-03-18T11:38:26.864Z,841.00
2024-03-18T11:39:26.917Z,854.00
2024-03-18T11:40:26.959Z,858.00
2024-03-18T11:41:27.013Z,866.00
2024-03-18T11:42:27.082Z,879.00
2024-03-18T11:43:27.105Z,899.00
2024-03-18T11:44:27.159Z,841.00
2024-03-18T11:45:27.219Z,788.00
2024-03-18T11:46:27.299Z,767.00
2024-03-18T11:47:27.334Z,735.00
2024-03-18T11:48:27.409Z,687.00
2024-03-18T11:49:27.462Z,671.00
2024-03-18T11:50:27.511Z,663.00
2024-03-18T11:51:27.544Z,645.00
2024-03-18T11:52:27.562Z,635.00
2024-03-18T11:53:27.565Z,618.00
2024-03-18T11:54:27.613Z,610.00
2024-03-18T11:55:27.606Z,619.00
2024-03-18T11:56:27.613Z,626.00
2024-03-18T11:57:27.629Z,641.00
2024-03-18T11:58:27.639Z,640.00
2024-03-18T11:59:27.662Z,647.00
2024-03-18T12:00:27.687Z,670.00
2024-03-18T12:01:27.710Z,869.00
2024-03-18T12:02:27.695Z,1124.00
2024-03-18T12:03:27.706Z,1194.00
2024-03-18T12:04:27.749Z,1223.00
2024-03-18T12:05:27.796Z,1250.00
2024-03-18T12:06:28.361Z,1216.00
2024-03-18T12:07:27.929Z,1229.00
2024-03-18T12:08:27.995Z,1226.00
2024-03-18T12:09:28.043Z,1226.00
2024-03-18T12:10:28.124Z,1235.00
2024-03-18T12:11:28.341Z,1233.00
2024-03-18T12:12:28.216Z,1218.00
2024-03-18T12:13:28.285Z,1202.00
2024-03-18T12:14:28.316Z,1175.00
2024-03-18T12:15:28.383Z,1182.00
2024-03-18T12:16:28.848Z,1176.00
2024-03-18T12:17:28.975Z,1180.00
2024-03-18T12:18:28.535Z,1172.00
2024-03-18T12:19:28.587Z,1184.00
2024-03-18T12:20:28.636Z,1185.00
2024-03-18T12:21:28.741Z,1178.00
2024-03-18T12:22:28.748Z,1178.00
2024-03-18T12:23:28.791Z,1204.00
2024-03-18T12:24:28.825Z,1226.00
2024-03-18T12:25:28.890Z,1226.00
2024-03-18T12:26:28.923Z,1225.00
2024-03-18T12:27:28.965Z,1237.00